Time;durP1;ratioP1;P1;durP2;ratioP2;P2;SDS_P1;SDS_P2;PMS_P1;PMS_P2;Temp;Humidity;BMP_temperature;BMP_pressure;BME280_temperature;BME280_humidity;BME280_pressure;Samples;Min_cycle;Max_cycle;Signal;HPM_P1;HPM_P2
2021/11/04 00:01:31;;;;;;;16.38;6.38;;;7.90;86.60;;;;;;5025915;28;20392;-74
2021/11/04 00:03:57;;;;;;;14.48;6.25;;;7.80;86.50;;;;;;5031219;28;20030;-74
2021/11/04 00:06:23;;;;;;;11.75;5.07;;;7.80;86.70;;;;;;5032299;28;20626;-74
2021/11/04 00:08:48;;;;;;;17.30;6.15;;;7.80;86.80;;;;;;5029994;28;20033;-74
2021/11/04 00:11:14;;;;;;;21.02;6.82;;;7.80;86.90;;;;;;5029219;28;20052;-74
2021/11/04 00:13:40;;;;;;;13.75;5.30;;;7.90;86.90;;;;;;5024730;28;20021;-74
2021/11/04 00:16:08;;;;;;;16.70;5.72;;;7.80;86.90;;;;;;5031729;28;20060;-74
2021/11/04 00:18:34;;;;;;;24.38;5.80;;;7.80;87.00;;;;;;5031459;28;20022;-74
2021/11/04 00:21:00;;;;;;;22.60;5.10;;;7.80;86.90;;;;;;5025270;28;20113;-74
2021/11/04 00:23:26;;;;;;;13.73;5.00;;;7.80;86.80;;;;;;5033875;28;20128;-73
2021/11/04 00:25:51;;;;;;;24.10;4.95;;;7.80;86.80;;;;;;5031586;28;20030;-73
2021/11/04 00:28:17;;;;;;;21.70;4.55;;;7.90;86.80;;;;;;5032240;28;20032;-74
2021/11/04 00:30:43;;;;;;;8.88;3.65;;;7.80;86.70;;;;;;5031170;28;20036;-74
2021/11/04 00:33:09;;;;;;;16.13;4.20;;;7.80;86.70;;;;;;5032849;28;20030;-74
2021/11/04 00:35:35;;;;;;;26.55;3.92;;;7.70;86.70;;;;;;5032354;28;20072;-73
2021/11/04 00:38:01;;;;;;;15.90;4.45;;;7.70;86.80;;;;;;5031341;28;20064;-74
2021/11/04 00:40:26;;;;;;;21.05;4.18;;;7.70;87.00;;;;;;5022227;28;20030;-74
2021/11/04 00:42:52;;;;;;;54.88;5.25;;;7.70;87.00;;;;;;5031297;28;20120;-74
2021/11/04 00:45:18;;;;;;;24.77;3.90;;;7.70;86.90;;;;;;5031331;28;20032;-74
2021/11/04 00:47:43;;;;;;;18.95;3.75;;;7.60;86.90;;;;;;5029684;28;20067;-74
2021/11/04 00:50:09;;;;;;;41.38;4.65;;;7.60;86.80;;;;;;5021956;28;20791;-74
2021/11/04 00:52:35;;;;;;;10.23;3.92;;;7.60;86.80;;;;;;5026425;28;20657;-73
2021/11/04 00:55:01;;;;;;;9.80;3.92;;;7.60;86.90;;;;;;5020929;28;20480;-74
2021/11/04 00:57:26;;;;;;;28.95;4.57;;;7.60;86.80;;;;;;5026812;28;20026;-74
2021/11/04 00:59:52;;;;;;;6.47;3.28;;;7.60;86.80;;;;;;5029940;28;20091;-73
2021/11/04 01:02:17;;;;;;;17.33;3.63;;;7.60;86.90;;;;;;5023662;28;20063;-73
2021/11/04 01:04:43;;;;;;;40.75;4.15;;;7.60;86.90;;;;;;5030194;28;20157;-73
2021/11/04 01:07:09;;;;;;;42.50;4.22;;;7.60;87.40;;;;;;5018141;28;20107;-74
2021/11/04 01:09:34;;;;;;;18.08;3.42;;;7.50;86.50;;;;;;5030617;28;20218;-73
2021/11/04 01:12:00;;;;;;;22.80;3.55;;;7.50;86.70;;;;;;5024262;28;20029;-73
2021/11/04 01:14:25;;;;;;;9.10;2.80;;;7.50;86.80;;;;;;5055156;28;20032;-73
2021/11/04 01:16:51;;;;;;;28.33;3.88;;;7.40;86.80;;;;;;5023303;28;20076;-73
2021/11/04 01:19:17;;;;;;;12.15;3.40;;;7.40;86.80;;;;;;5050154;28;20026;-73
2021/11/04 01:21:42;;;;;;;9.40;3.08;;;7.40;86.90;;;;;;5028316;28;20188;-74
2021/11/04 01:24:08;;;;;;;14.68;3.58;;;7.50;86.90;;;;;;5027021;28;20025;-74
2021/11/04 01:26:34;;;;;;;13.07;3.90;;;7.40;86.70;;;;;;5031679;28;20025;-74
2021/11/04 01:29:00;;;;;;;15.80;3.47;;;7.40;86.80;;;;;;5031279;28;20480;-74
2021/11/04 01:31:26;;;;;;;9.68;3.78;;;7.40;86.80;;;;;;5030131;28;20030;-74
2021/11/04 01:33:51;;;;;;;9.70;3.58;;;7.50;86.90;;;;;;5022671;28;20079;-74
2021/11/04 01:36:17;;;;;;;11.57;3.70;;;7.50;86.80;;;;;;5021074;28;20045;-74
2021/11/04 01:38:42;;;;;;;8.35;3.65;;;7.50;86.70;;;;;;5028133;28;20024;-73
2021/11/04 01:41:08;;;;;;;14.98;3.45;;;7.50;86.70;;;;;;5027051;28;20408;-73
2021/11/04 01:43:34;;;;;;;11.32;3.28;;;7.50;86.50;;;;;;5031396;28;20029;-74
2021/11/04 01:46:01;;;;;;;11.00;3.60;;;7.50;86.50;;;;;;5031157;28;20040;-74
2021/11/04 01:48:26;;;;;;;15.60;3.53;;;7.40;86.60;;;;;;5029225;28;20037;-72
2021/11/04 01:50:53;;;;;;;10.20;3.72;;;7.50;86.70;;;;;;5020595;28;20033;-73
2021/11/04 01:53:20;;;;;;;11.05;3.78;;;7.40;86.60;;;;;;5029349;28;20736;-74
2021/11/04 01:55:46;;;;;;;12.18;3.72;;;7.50;86.70;;;;;;5030050;28;20025;-74
2021/11/04 01:58:12;;;;;;;15.38;4.20;;;7.50;86.60;;;;;;5026551;28;20013;-74
2021/11/04 02:00:37;;;;;;;18.75;3.63;;;7.50;86.50;;;;;;5021685;28;20037;-74
2021/11/04 02:03:22;;;;;;;9.48;3.85;;;7.50;86.50;;;;;;5030051;28;20108;-74
2021/11/04 02:06:07;;;;;;;17.83;3.65;;;7.50;86.50;;;;;;5020935;28;20067;-74
2021/11/04 02:08:52;;;;;;;16.13;3.75;;;7.50;86.50;;;;;;5023606;28;20034;-74
2021/11/04 02:11:22;;;;;;;11.60;3.65;;;7.50;86.50;;;;;;5048150;28;20037;-74
2021/11/04 02:14:00;;;;;;;7.55;3.53;;;7.50;86.40;;;;;;5029404;28;20026;-74
2021/11/04 02:16:29;;;;;;;10.30;3.65;;;7.50;86.50;;;;;;5026194;28;20068;-74
2021/11/04 02:18:59;;;;;;;10.40;3.38;;;7.50;86.50;;;;;;5028277;28;20057;-74
2021/11/04 02:21:39;;;;;;;10.38;3.38;;;7.50;86.50;;;;;;5031644;28;20026;-73
2021/11/04 02:24:18;;;;;;;12.95;3.70;;;7.50;86.50;;;;;;5025992;28;20500;-73
2021/11/04 02:26:46;;;;;;;19.70;3.70;;;7.50;86.50;;;;;;5029600;28;20018;-73
2021/11/04 02:29:12;;;;;;;7.28;3.90;;;7.50;86.50;;;;;;5030233;28;20025;-73
2021/11/04 02:31:38;;;;;;;10.43;3.38;;;7.40;86.50;;;;;;5038769;28;20399;-73
2021/11/04 02:34:04;;;;;;;12.02;3.55;;;7.50;86.60;;;;;;5018398;28;20022;-73
2021/11/04 02:36:30;;;;;;;6.90;3.78;;;7.40;86.50;;;;;;5028834;28;20033;-73
2021/11/04 02:38:56;;;;;;;9.90;2.90;;;7.50;86.60;;;;;;5029055;28;20108;-73
2021/11/04 02:41:23;;;;;;;8.75;3.65;;;7.50;86.60;;;;;;5026132;28;20033;-73
2021/11/04 02:43:49;;;;;;;5.97;2.88;;;7.40;86.70;;;;;;5030152;28;20026;-74
2021/11/04 02:46:15;;;;;;;9.60;4.00;;;7.40;86.60;;;;;;5030208;28;20173;-73
2021/11/04 02:48:41;;;;;;;7.40;3.22;;;7.50;86.70;;;;;;5029931;28;20108;-73
2021/11/04 02:51:08;;;;;;;6.90;3.58;;;7.50;86.70;;;;;;5024475;28;20033;-73
2021/11/04 02:53:34;;;;;;;8.32;4.10;;;7.40;86.60;;;;;;5028108;28;20018;-73
2021/11/04 02:56:00;;;;;;;10.55;4.28;;;7.40;86.60;;;;;;5033853;28;20024;-74
2021/11/04 02:58:26;;;;;;;7.05;3.95;;;7.50;86.70;;;;;;5033387;28;20446;-73
2021/11/04 03:00:58;;;;;;;6.63;3.95;;;7.50;86.70;;;;;;5026614;28;20040;-73
2021/11/04 03:03:24;;;;;;;13.02;4.22;;;7.50;86.70;;;;;;5031898;28;20014;-73
2021/11/04 03:05:50;;;;;;;12.20;4.03;;;7.50;86.70;;;;;;5060126;28;20026;-73
2021/11/04 03:08:16;;;;;;;9.25;4.38;;;7.50;86.60;;;;;;5024622;28;20014;-73
2021/11/04 03:10:42;;;;;;;5.70;4.20;;;7.50;86.60;;;;;;5024099;28;20042;-73
2021/11/04 03:13:08;;;;;;;7.78;5.35;;;7.50;86.50;;;;;;5022002;28;20144;-73
2021/11/04 03:15:43;;;;;;;6.40;4.60;;;7.50;86.60;;;;;;5031431;28;20034;-73
2021/11/04 03:18:09;;;;;;;6.68;4.20;;;7.50;86.70;;;;;;5032525;28;20033;-73
2021/11/04 03:20:36;;;;;;;5.75;4.10;;;7.60;86.70;;;;;;5030973;28;20376;-73
2021/11/04 03:23:03;;;;;;;13.43;5.95;;;7.60;86.70;;;;;;5025160;28;20025;-73
2021/11/04 03:25:29;;;;;;;7.95;4.45;;;7.60;86.60;;;;;;5031347;28;20068;-74
2021/11/04 03:27:55;;;;;;;6.22;4.30;;;7.60;86.70;;;;;;5064006;28;20053;-73
2021/11/04 03:30:27;;;;;;;6.60;4.45;;;7.60;87.30;;;;;;5044274;28;20045;-73
2021/11/04 03:32:56;;;;;;;5.63;3.85;;;7.60;86.70;;;;;;5026261;28;20025;-73
2021/11/04 03:35:25;;;;;;;5.93;4.18;;;7.60;86.70;;;;;;5022610;28;20531;-73
2021/11/04 03:37:53;;;;;;;6.20;4.30;;;7.60;86.70;;;;;;5032022;28;20151;-73
2021/11/04 03:40:19;;;;;;;6.78;4.40;;;7.60;86.70;;;;;;5030441;28;20021;-73
2021/11/04 03:42:45;;;;;;;8.50;4.90;;;7.60;86.70;;;;;;5020331;28;20026;-73
2021/11/04 03:45:13;;;;;;;5.88;4.30;;;7.70;86.80;;;;;;5031228;28;20116;-73
2021/11/04 03:47:40;;;;;;;6.43;4.50;;;7.70;86.90;;;;;;5032134;28;20026;-73
2021/11/04 03:50:07;;;;;;;6.60;4.47;;;7.70;86.80;;;;;;5018285;28;20033;-73
2021/11/04 03:52:33;;;;;;;5.35;3.95;;;7.70;86.60;;;;;;5030339;28;20159;-73
2021/11/04 03:55:00;;;;;;;5.50;3.40;;;7.70;86.60;;;;;;5029487;28;20029;-73
2021/11/04 03:57:27;;;;;;;7.97;5.32;;;7.70;86.70;;;;;;5031659;28;20033;-73
2021/11/04 03:59:53;;;;;;;7.40;5.05;;;7.70;86.70;;;;;;5031657;28;20057;-73
2021/11/04 04:02:21;;;;;;;8.00;5.20;;;7.70;87.40;;;;;;5033429;28;20064;-73
2021/11/04 04:04:55;;;;;;;9.82;6.22;;;7.80;86.90;;;;;;5029021;28;20048;-73
2021/11/04 04:07:24;;;;;;;11.88;6.85;;;7.70;86.80;;;;;;5032042;28;20024;-73
2021/11/04 04:09:50;;;;;;;13.40;5.90;;;7.80;86.80;;;;;;5058817;28;20034;-74
2021/11/04 04:12:16;;;;;;;19.40;6.68;;;7.80;86.80;;;;;;5031578;28;20033;-74
2021/11/04 04:14:41;;;;;;;11.43;6.10;;;7.80;86.80;;;;;;5022004;28;20604;-73
2021/11/04 04:17:07;;;;;;;12.00;5.72;;;7.80;86.80;;;;;;5032319;28;20083;-74
2021/11/04 04:19:33;;;;;;;8.93;5.30;;;7.80;86.80;;;;;;5027926;28;20029;-73
2021/11/04 04:21:58;;;;;;;11.55;7.03;;;7.80;86.60;;;;;;5031777;28;20467;-73
2021/11/04 04:24:24;;;;;;;18.05;7.20;;;7.80;86.60;;;;;;5031529;28;20105;-73
2021/11/04 04:26:49;;;;;;;31.00;8.40;;;7.80;86.70;;;;;;5060337;28;20120;-73
2021/11/04 04:29:14;;;;;;;58.22;11.15;;;7.80;86.80;;;;;;5032265;28;20025;-74
2021/11/04 04:31:42;;;;;;;17.58;7.70;;;7.80;86.90;;;;;;5032910;28;20073;-74
2021/11/04 04:34:08;;;;;;;15.82;6.85;;;7.80;87.10;;;;;;5032615;28;20105;-74
2021/11/04 04:36:33;;;;;;;15.25;6.40;;;7.80;87.00;;;;;;5020249;28;20116;-74
2021/11/04 04:38:59;;;;;;;13.43;7.03;;;7.90;87.00;;;;;;5031413;28;20129;-73
2021/11/04 04:41:24;;;;;;;11.93;6.70;;;7.90;86.80;;;;;;5025502;28;20050;-73
2021/11/04 04:43:50;;;;;;;14.68;6.93;;;8.00;86.90;;;;;;5026025;28;20022;-73
2021/11/04 04:46:17;;;;;;;15.90;7.70;;;8.00;86.80;;;;;;5029778;28;20354;-74
2021/11/04 04:48:42;;;;;;;19.33;7.72;;;8.00;86.80;;;;;;5031296;28;20079;-74
2021/11/04 04:51:08;;;;;;;14.88;8.43;;;8.00;86.80;;;;;;5027841;28;20499;-73
2021/11/04 04:53:34;;;;;;;25.98;7.53;;;8.10;86.80;;;;;;5030374;28;20026;-73
2021/11/04 04:55:59;;;;;;;20.52;6.90;;;8.10;86.80;;;;;;5026167;28;20040;-73
2021/11/04 04:58:25;;;;;;;13.50;7.20;;;8.10;86.80;;;;;;5029973;28;20025;-74
2021/11/04 05:00:50;;;;;;;11.90;7.38;;;8.10;86.80;;;;;;5023007;28;20480;-74
2021/11/04 05:03:16;;;;;;;16.13;8.30;;;8.10;86.80;;;;;;5027109;28;20053;-73
2021/11/04 05:05:42;;;;;;;12.38;7.47;;;8.10;86.80;;;;;;5030922;28;20365;-73
2021/11/04 05:08:07;;;;;;;12.40;7.72;;;8.10;86.80;;;;;;5030409;28;20037;-73
2021/11/04 05:10:33;;;;;;;14.23;8.35;;;8.10;86.80;;;;;;5029241;28;20079;-74
2021/11/04 05:12:58;;;;;;;13.93;8.30;;;8.10;86.80;;;;;;5028988;28;20106;-73
2021/11/04 05:15:24;;;;;;;11.30;7.20;;;8.10;86.80;;;;;;5027150;28;20044;-73
2021/11/04 05:17:50;;;;;;;13.65;7.72;;;8.20;86.90;;;;;;5027280;28;20035;-73
2021/11/04 05:20:16;;;;;;;10.63;6.72;;;8.20;86.90;;;;;;5024822;28;20013;-73
2021/11/04 05:22:42;;;;;;;14.27;7.70;;;8.20;86.90;;;;;;5062572;28;20393;-73
2021/11/04 05:25:08;;;;;;;14.20;8.35;;;8.20;86.90;;;;;;5030081;28;20025;-73
2021/11/04 05:27:34;;;;;;;13.07;7.97;;;8.20;86.90;;;;;;5018942;28;20071;-72
2021/11/04 05:29:59;;;;;;;12.57;7.82;;;8.20;86.80;;;;;;5025193;28;20524;-73
2021/11/04 05:32:25;;;;;;;15.07;8.65;;;8.20;86.90;;;;;;5029411;28;20042;-72
2021/11/04 05:34:52;;;;;;;12.50;8.25;;;8.20;87.00;;;;;;5021423;28;20046;-73
2021/11/04 05:37:17;;;;;;;18.13;8.65;;;8.20;87.00;;;;;;5019068;28;20033;-73
2021/11/04 05:39:43;;;;;;;15.70;7.88;;;8.10;86.80;;;;;;5021235;28;20085;-73
2021/11/04 05:42:09;;;;;;;17.70;6.75;;;8.20;86.90;;;;;;5026970;28;20017;-73
2021/11/04 05:44:35;;;;;;;14.25;7.55;;;8.20;86.90;;;;;;5024403;28;20025;-73
2021/11/04 05:47:02;;;;;;;14.93;7.68;;;8.10;86.90;;;;;;5029561;28;20063;-74
2021/11/04 05:49:28;;;;;;;13.60;7.75;;;8.10;86.90;;;;;;5023219;28;20071;-73
2021/11/04 05:51:53;;;;;;;18.73;7.32;;;8.10;87.00;;;;;;5024728;28;20430;-73
2021/11/04 05:54:19;;;;;;;12.27;7.25;;;8.10;87.00;;;;;;5024796;28;20041;-73
2021/11/04 05:56:45;;;;;;;12.82;7.38;;;8.10;87.00;;;;;;5024424;28;20032;-74
2021/11/04 05:59:10;;;;;;;9.20;5.82;;;8.10;87.00;;;;;;5052530;28;20045;-76
2021/11/04 06:01:36;;;;;;;16.23;7.57;;;8.10;87.10;;;;;;5022124;28;20026;-73
2021/11/04 06:04:01;;;;;;;17.05;7.55;;;8.10;87.10;;;;;;5019622;28;20026;-74
2021/11/04 06:06:27;;;;;;;27.42;7.95;;;8.10;87.00;;;;;;5030173;28;20036;-74
2021/11/04 06:08:52;;;;;;;17.58;7.30;;;8.10;87.10;;;;;;5028356;28;20450;-74
2021/11/04 06:11:18;;;;;;;20.75;7.90;;;8.00;87.00;;;;;;5021783;28;20061;-74
2021/11/04 06:13:43;;;;;;;17.30;7.13;;;8.00;87.00;;;;;;5026858;28;20017;-72
2021/11/04 06:16:13;;;;;;;12.40;7.03;;;8.00;87.10;;;;;;5030991;28;20044;-72
2021/11/04 06:18:40;;;;;;;12.95;6.32;;;8.00;87.00;;;;;;5029336;28;20026;-72
2021/11/04 06:21:06;;;;;;;18.88;9.27;;;8.00;87.00;;;;;;5022497;28;20113;-72
2021/11/04 06:23:32;;;;;;;13.07;7.25;;;8.00;87.00;;;;;;5031138;28;20101;-72
2021/11/04 06:25:57;;;;;;;12.15;6.07;;;8.00;87.10;;;;;;5024984;28;20553;-72
2021/11/04 06:28:23;;;;;;;14.82;7.20;;;7.90;87.00;;;;;;5034640;28;20025;-72
2021/11/04 06:30:48;;;;;;;12.93;7.35;;;8.00;87.20;;;;;;5034607;28;20037;-72
2021/11/04 06:33:14;;;;;;;14.48;7.18;;;8.00;87.10;;;;;;5034519;28;20039;-70
2021/11/04 06:35:39;;;;;;;11.20;7.35;;;8.00;87.10;;;;;;5035084;28;20025;-71
2021/11/04 06:38:06;;;;;;;18.90;7.40;;;8.00;87.10;;;;;;5035113;28;20026;-71
2021/11/04 06:40:32;;;;;;;14.55;6.93;;;8.00;87.00;;;;;;5034116;28;20125;-73
2021/11/04 06:42:58;;;;;;;15.65;7.43;;;8.00;87.00;;;;;;5035030;28;20052;-73
2021/11/04 06:45:24;;;;;;;26.13;6.65;;;8.00;86.90;;;;;;5031045;28;20045;-72
2021/11/04 06:47:53;;;;;;;16.60;8.18;;;8.10;87.00;;;;;;5026174;28;20088;-73
2021/11/04 06:50:20;;;;;;;16.50;8.00;;;8.00;86.90;;;;;;5032808;28;20048;-72
2021/11/04 06:52:56;;;;;;;27.85;9.07;;;8.00;87.00;;;;;;5065172;28;20061;-73
2021/11/04 06:55:25;;;;;;;10.38;6.28;;;7.90;87.00;;;;;;5031315;28;20033;-73
2021/11/04 06:57:52;;;;;;;11.63;6.22;;;7.90;87.10;;;;;;5032720;28;20091;-73
2021/11/04 07:00:18;;;;;;;12.30;7.82;;;7.80;87.00;;;;;;5029558;28;20024;-73
2021/11/04 07:02:51;;;;;;;22.33;8.60;;;7.70;87.10;;;;;;5031874;28;20037;-73
2021/11/04 07:05:18;;;;;;;33.15;9.13;;;7.70;87.40;;;;;;5030923;28;20496;-73
2021/11/04 07:07:47;;;;;;;26.13;10.50;;;7.70;87.60;;;;;;5038034;28;20674;-73
2021/11/04 07:10:15;;;;;;;38.53;10.73;;;7.70;87.60;;;;;;5026795;28;20079;-74
2021/11/04 07:12:49;;;;;;;109.07;12.85;;;7.70;87.60;;;;;;5030356;28;20481;-73
2021/11/04 07:15:17;;;;;;;17.42;8.63;;;7.70;87.60;;;;;;5055837;28;20014;-73
2021/11/04 07:17:44;;;;;;;18.58;8.05;;;7.70;87.60;;;;;;5028967;28;20396;-73
2021/11/04 07:20:11;;;;;;;13.45;7.45;;;7.70;87.60;;;;;;5049085;28;20041;-73
2021/11/04 07:22:50;;;;;;;10.32;6.85;;;7.80;87.50;;;;;;5028619;28;20468;-73
2021/11/04 07:25:18;;;;;;;12.48;7.30;;;7.80;87.50;;;;;;5030218;28;20104;-73
2021/11/04 07:27:53;;;;;;;11.85;8.73;;;7.80;87.50;;;;;;5028299;28;20044;-72
2021/11/04 07:30:20;;;;;;;13.45;7.00;;;7.90;87.50;;;;;;5026709;28;20045;-73
2021/11/04 07:32:54;;;;;;;12.45;7.13;;;7.90;87.40;;;;;;5029470;28;20041;-73
2021/11/04 07:35:28;;;;;;;17.17;7.35;;;8.00;87.50;;;;;;5020835;28;20029;-73
2021/11/04 07:37:54;;;;;;;12.93;6.10;;;8.00;87.30;;;;;;5032169;28;20037;-73
2021/11/04 07:40:22;;;;;;;24.52;8.15;;;8.00;87.30;;;;;;5024405;28;20596;-73
2021/11/04 07:42:48;;;;;;;11.73;6.00;;;8.00;87.40;;;;;;5027989;28;20030;-73
2021/11/04 07:45:13;;;;;;;14.90;6.82;;;8.00;87.40;;;;;;5031610;28;20029;-73
2021/11/04 07:47:41;;;;;;;9.07;5.20;;;8.00;87.40;;;;;;5029059;28;20025;-73
2021/11/04 07:50:09;;;;;;;10.02;6.32;;;8.00;87.40;;;;;;5027782;28;20710;-73
2021/11/04 07:52:37;;;;;;;9.05;6.85;;;8.00;87.30;;;;;;5033331;28;20392;-73
2021/11/04 07:55:04;;;;;;;8.18;5.78;;;8.10;87.40;;;;;;5035845;28;20496;-73
2021/11/04 07:57:31;;;;;;;8.75;5.20;;;8.10;87.40;;;;;;5031791;28;20175;-73
2021/11/04 07:59:57;;;;;;;11.77;6.10;;;8.10;87.30;;;;;;5029929;28;20029;-72
2021/11/04 08:02:23;;;;;;;8.90;5.75;;;8.10;87.30;;;;;;5030556;28;20398;-73
2021/11/04 08:04:48;;;;;;;11.73;6.47;;;8.10;87.20;;;;;;5028393;28;20480;-74
2021/11/04 08:07:14;;;;;;;9.73;4.93;;;8.10;87.20;;;;;;5061739;28;20483;-75
2021/11/04 08:09:40;;;;;;;6.05;4.50;;;8.10;87.20;;;;;;5025838;28;20557;-73
2021/11/04 08:12:06;;;;;;;11.90;6.72;;;8.10;87.20;;;;;;5032555;28;20030;-73
2021/11/04 08:14:32;;;;;;;8.50;5.72;;;8.10;87.30;;;;;;5035783;28;20024;-74
2021/11/04 08:16:58;;;;;;;9.38;5.55;;;8.20;87.30;;;;;;5037063;28;20033;-74
2021/11/04 08:19:23;;;;;;;7.35;5.05;;;8.20;87.20;;;;;;5027861;28;20009;-73
2021/11/04 08:21:49;;;;;;;7.22;5.55;;;8.20;87.10;;;;;;5017926;28;20033;-73
2021/11/04 08:24:14;;;;;;;6.50;5.10;;;8.30;87.10;;;;;;5052141;28;20030;-73
2021/11/04 08:26:40;;;;;;;5.65;4.20;;;8.40;87.10;;;;;;5024246;28;20079;-73
2021/11/04 08:29:05;;;;;;;8.02;4.93;;;8.40;86.90;;;;;;5023343;28;20488;-74
2021/11/04 08:31:31;;;;;;;7.10;5.32;;;8.40;86.80;;;;;;5018543;28;20480;-73
2021/11/04 08:33:57;;;;;;;6.97;5.53;;;8.50;86.80;;;;;;5019321;28;20033;-73
2021/11/04 08:36:23;;;;;;;6.90;5.43;;;8.50;86.70;;;;;;5034156;28;20052;-73
2021/11/04 08:38:49;;;;;;;6.57;5.45;;;8.50;86.70;;;;;;5021753;28;20014;-72
2021/11/04 08:41:15;;;;;;;6.38;4.63;;;8.50;86.70;;;;;;5024395;28;20396;-72
2021/11/04 08:43:41;;;;;;;5.63;4.50;;;8.50;86.70;;;;;;5016360;28;20117;-79
2021/11/04 08:46:07;;;;;;;10.02;6.65;;;8.60;86.60;;;;;;5033477;28;20589;-71
2021/11/04 08:48:33;;;;;;;7.90;6.10;;;8.60;86.60;;;;;;5018364;28;20029;-71
2021/11/04 08:50:59;;;;;;;7.22;5.53;;;8.60;86.60;;;;;;5025865;28;20491;-71
2021/11/04 08:53:25;;;;;;;5.78;4.57;;;8.60;86.60;;;;;;5025517;28;20033;-72
2021/11/04 08:55:51;;;;;;;5.75;4.70;;;8.70;86.60;;;;;;5015712;28;20033;-72
2021/11/04 08:58:16;;;;;;;5.05;3.60;;;8.70;86.50;;;;;;5027849;28;20052;-73
2021/11/04 09:00:42;;;;;;;6.50;5.05;;;8.70;86.60;;;;;;5027551;28;20025;-73
2021/11/04 09:03:08;;;;;;;6.43;5.15;;;8.70;86.60;;;;;;5023719;28;20025;-72
2021/11/04 09:05:34;;;;;;;7.20;5.07;;;8.70;86.60;;;;;;5023944;28;20026;-73
2021/11/04 09:08:00;;;;;;;6.80;4.95;;;8.80;86.70;;;;;;5028298;28;20439;-74
2021/11/04 09:10:26;;;;;;;6.82;4.25;;;8.80;86.60;;;;;;5023149;28;20034;-73
2021/11/04 09:12:52;;;;;;;6.65;5.07;;;8.80;86.50;;;;;;5018883;28;20038;-73
2021/11/04 09:15:18;;;;;;;5.90;4.85;;;8.90;86.60;;;;;;5052969;28;20449;-73
2021/11/04 09:17:44;;;;;;;4.95;3.95;;;8.90;86.50;;;;;;5030832;28;20474;-73
2021/11/04 09:20:13;;;;;;;6.03;4.88;;;8.90;86.50;;;;;;5019691;28;20021;-73
2021/11/04 09:22:39;;;;;;;5.68;4.68;;;8.90;86.50;;;;;;5020206;28;20076;-73
2021/11/04 09:25:05;;;;;;;8.07;5.97;;;9.00;86.60;;;;;;5024500;28;20041;-73
2021/11/04 09:27:31;;;;;;;8.07;6.13;;;9.00;86.60;;;;;;5027332;28;20594;-73
2021/11/04 09:29:59;;;;;;;10.90;7.70;;;9.10;86.70;;;;;;5020422;28;20105;-73
2021/11/04 09:32:24;;;;;;;7.85;6.18;;;9.10;86.60;;;;;;5037183;28;20036;-73
2021/11/04 09:34:51;;;;;;;6.25;5.10;;;9.10;86.60;;;;;;5026878;28;20060;-73
2021/11/04 09:37:18;;;;;;;7.90;6.20;;;9.10;86.50;;;;;;5026097;28;20026;-73
2021/11/04 09:39:44;;;;;;;9.18;7.10;;;9.10;86.50;;;;;;5032986;28;20025;-73
2021/11/04 09:42:10;;;;;;;6.72;4.90;;;9.20;86.50;;;;;;5023035;28;20484;-73
2021/11/04 09:44:35;;;;;;;9.23;6.63;;;9.20;86.50;;;;;;5033957;28;20045;-73
2021/11/04 09:47:01;;;;;;;9.10;7.18;;;9.20;86.50;;;;;;5023344;28;20057;-73
2021/11/04 09:49:29;;;;;;;11.05;7.63;;;9.30;86.50;;;;;;5033515;28;20524;-73
2021/11/04 09:51:56;;;;;;;9.45;7.03;;;9.30;86.40;;;;;;5019266;28;20117;-74
2021/11/04 09:54:22;;;;;;;7.57;5.30;;;9.30;86.30;;;;;;5028024;28;20029;-74
2021/11/04 09:56:48;;;;;;;13.55;9.65;;;9.30;86.30;;;;;;5034586;28;20481;-75
2021/11/04 09:59:14;;;;;;;12.93;9.25;;;9.30;86.30;;;;;;5039268;28;20032;-74
2021/11/04 10:01:49;;;;;;;13.43;10.18;;;9.20;86.30;;;;;;5033625;28;20034;-75
2021/11/04 10:04:15;;;;;;;12.80;9.32;;;9.20;86.50;;;;;;5029352;28;20024;-74
2021/11/04 10:06:41;;;;;;;13.10;10.00;;;9.20;86.60;;;;;;5031880;28;20021;-74
2021/11/04 10:09:11;;;;;;;14.93;10.45;;;9.20;86.50;;;;;;5033380;28;20026;-74
2021/11/04 10:11:42;;;;;;;11.80;8.53;;;9.20;86.50;;;;;;5029519;28;20049;-73
2021/11/04 10:14:12;;;;;;;17.65;12.55;;;9.20;86.60;;;;;;5027610;28;20030;-74
2021/11/04 10:16:39;;;;;;;13.93;10.02;;;9.20;86.50;;;;;;5028095;28;20029;-74
2021/11/04 10:19:13;;;;;;;13.93;10.65;;;9.10;86.50;;;;;;5028237;28;20585;-74
2021/11/04 10:21:43;;;;;;;9.73;7.13;;;9.10;86.60;;;;;;5025321;28;20091;-74
2021/11/04 10:24:21;;;;;;;16.75;12.13;;;9.20;86.70;;;;;;5029595;28;20103;-74
2021/11/04 10:26:53;;;;;;;10.77;7.22;;;9.10;86.70;;;;;;5026091;28;20029;-74
2021/11/04 10:29:19;;;;;;;11.98;8.35;;;9.10;86.70;;;;;;5053724;28;20037;-74
2021/11/04 10:31:52;;;;;;;16.58;11.80;;;9.20;86.70;;;;;;5024121;28;20030;-74
2021/11/04 10:34:23;;;;;;;13.90;10.55;;;9.20;86.70;;;;;;5032844;28;20042;-74
2021/11/04 10:36:49;;;;;;;10.60;7.85;;;9.20;86.70;;;;;;5031435;28;20021;-74
2021/11/04 10:39:14;;;;;;;12.85;9.50;;;9.20;86.70;;;;;;5021849;28;20030;-74
2021/11/04 10:41:43;;;;;;;14.40;10.27;;;9.30;86.70;;;;;;5026173;28;20021;-74
2021/11/04 10:44:16;;;;;;;10.32;7.65;;;9.30;86.70;;;;;;5023692;28;20439;-74
2021/11/04 10:46:44;;;;;;;11.80;8.82;;;9.30;86.60;;;;;;5030943;28;20029;-75
2021/11/04 10:49:10;;;;;;;10.35;7.20;;;9.40;86.60;;;;;;5023296;28;20029;-74
2021/11/04 10:51:37;;;;;;;9.70;6.35;;;9.40;86.60;;;;;;5027339;28;20084;-74
2021/11/04 10:54:04;;;;;;;11.35;8.07;;;9.40;86.50;;;;;;5026971;28;20032;-74
2021/11/04 10:56:38;;;;;;;17.50;11.57;;;9.50;86.40;;;;;;5029824;28;20190;-74
2021/11/04 10:59:06;;;;;;;15.05;10.40;;;9.50;86.30;;;;;;5025936;28;20025;-74
2021/11/04 11:01:41;;;;;;;13.05;9.15;;;9.50;86.40;;;;;;5026762;28;20018;-73
2021/11/04 11:04:20;;;;;;;13.43;9.02;;;9.50;86.40;;;;;;5041539;28;20113;-75
2021/11/04 11:06:48;;;;;;;14.07;9.63;;;9.50;86.40;;;;;;5031087;28;20037;-75
2021/11/04 11:09:19;;;;;;;14.57;10.18;;;9.50;86.30;;;;;;5032100;28;20107;-74
2021/11/04 11:11:47;;;;;;;13.93;9.50;;;9.50;86.30;;;;;;5025083;28;20030;-75
2021/11/04 11:14:15;;;;;;;13.70;9.65;;;9.50;86.30;;;;;;5023003;28;20542;-74
2021/11/04 11:16:43;;;;;;;12.02;9.13;;;9.60;86.40;;;;;;5022083;28;20025;-75
2021/11/04 11:19:10;;;;;;;16.75;11.38;;;9.60;86.40;;;;;;5024721;28;20512;-75
2021/11/04 11:21:42;;;;;;;15.40;10.65;;;9.50;86.20;;;;;;5028726;28;20508;-74
2021/11/04 11:24:14;;;;;;;15.35;10.65;;;9.50;86.30;;;;;;5059759;28;20018;-75
2021/11/04 11:26:41;;;;;;;12.50;9.07;;;9.50;86.30;;;;;;5028963;28;20037;-74
2021/11/04 11:29:07;;;;;;;12.13;8.38;;;9.50;86.30;;;;;;5026594;28;20026;-72
2021/11/04 11:31:33;;;;;;;11.05;8.45;;;9.50;86.30;;;;;;5033028;28;20049;-74
2021/11/04 11:34:11;;;;;;;12.90;9.13;;;9.60;86.30;;;;;;5028836;28;20539;-74
2021/11/04 11:36:39;;;;;;;14.10;10.00;;;9.60;86.40;;;;;;5062481;28;20547;-74
2021/11/04 11:39:07;;;;;;;11.80;8.35;;;9.60;86.20;;;;;;5028714;28;20055;-73
2021/11/04 11:41:55;;;;;;;13.57;10.57;;;9.70;86.30;;;;;;5060457;28;20040;-78
2021/11/04 11:44:35;;;;;;;14.27;10.00;;;9.60;86.00;;;;;;5023096;28;20109;-75
2021/11/04 11:47:03;;;;;;;14.50;10.20;;;9.60;86.20;;;;;;5027535;28;20034;-75
2021/11/04 11:49:33;;;;;;;11.52;8.27;;;9.60;86.20;;;;;;5031726;28;20104;-75
2021/11/04 11:51:59;;;;;;;14.00;10.25;;;9.60;86.10;;;;;;5023590;28;20051;-74
2021/11/04 11:54:46;;;;;;;12.00;8.80;;;9.60;86.10;;;;;;5063475;28;20017;-74
2021/11/04 11:57:12;;;;;;;12.10;8.48;;;9.60;86.20;;;;;;5031786;28;20112;-74
2021/11/04 11:59:49;;;;;;;12.25;9.10;;;9.60;86.30;;;;;;5035258;28;20112;-75
2021/11/04 12:02:39;;;;;;;15.38;10.13;;;9.70;86.20;;;;;;5027121;28;20044;-75
2021/11/04 12:05:23;;;;;;;11.15;8.38;;;9.80;86.10;;;;;;5028039;28;20131;-75
2021/11/04 12:07:50;;;;;;;12.00;8.15;;;9.90;86.00;;;;;;5028715;28;20029;-75
2021/11/04 12:10:30;;;;;;;12.88;9.85;;;9.90;85.90;;;;;;5027783;28;20383;-75
2021/11/04 12:13:00;;;;;;;10.13;7.93;;;10.00;85.80;;;;;;5026397;28;20041;-75
2021/11/04 12:15:27;;;;;;;10.70;7.95;;;10.00;85.60;;;;;;5025722;28;20021;-75
2021/11/04 12:18:18;;;;;;;14.02;9.65;;;10.00;85.50;;;;;;5016672;28;20033;-75
2021/11/04 12:20:54;;;;;;;12.57;9.32;;;10.10;85.50;;;;;;5027500;28;20013;-75
2021/11/04 12:23:21;;;;;;;11.00;7.88;;;10.10;85.50;;;;;;5019737;28;20068;-74
2021/11/04 12:25:48;;;;;;;8.57;5.70;;;10.20;85.40;;;;;;5028721;28;20056;-74
2021/11/04 12:28:15;;;;;;;11.80;9.05;;;10.20;85.30;;;;;;5023040;28;20030;-74
2021/11/04 12:30:41;;;;;;;8.73;6.13;;;10.30;85.30;;;;;;5029011;28;20037;-74
2021/11/04 12:33:09;;;;;;;11.98;8.73;;;10.30;85.30;;;;;;5026530;28;20043;-74
2021/11/04 12:35:46;;;;;;;12.23;8.75;;;10.30;85.20;;;;;;5020971;28;20022;-74
2021/11/04 12:38:14;;;;;;;8.60;6.57;;;10.30;85.20;;;;;;5020199;28;20109;-74
2021/11/04 12:40:40;;;;;;;12.38;8.93;;;10.30;85.10;;;;;;5022525;28;20082;-74
2021/11/04 12:43:11;;;;;;;12.10;8.50;;;10.30;85.00;;;;;;5024375;28;20030;-74
2021/11/04 12:45:44;;;;;;;12.43;8.27;;;10.40;85.10;;;;;;5028641;28;20025;-74
2021/11/04 12:48:09;;;;;;;8.90;6.55;;;10.40;85.10;;;;;;5021544;28;20044;-74
2021/11/04 12:50:35;;;;;;;9.27;7.00;;;10.40;85.10;;;;;;5032620;28;20044;-74